• Join FlightAware (Why Join?)
  • Login
  • US Flag 
11:52AM EST


 

Airport Tracker/Info


-or-


 

Live Flight TrackerFlight Track Log ✈ LXJ262 ✈ 27-Apr-2013 ✈ TNCM / SXM - KFLL

Flight Track Log - Related Links

Times and Time Zones

All times are in EDT time to prevent confusion due to time zone crossing. See the LXJ262 flight status page for this flight to view local times or setup timezone preferences in your user account.

Time Position Orientation Groundspeed Altitude Reporting Facility
EDT Latitude Longitude Course Direction KTS MPH feet Rate Location/Type
04:35PM 17.9833 -63.1167 298° West 260 299 7,700  Level San Juan Center
04:36PM 18.0167 -63.1833 298° West 280 322 11,000 3,120 Climbing San Juan Center
04:37PM 18.0500 -63.2833 289° West 350 403 14,100 3,300 Climbing San Juan Center
04:38PM 18.0667 -63.3833 280° West 360 414 17,600 3,360 Climbing San Juan Center
04:39PM 18.1000 -63.5000 287° West 350 403 20,900 2,820 Climbing San Juan Center
04:40PM 18.1333 -63.5833 293° West 370 426 23,400 2,340 Climbing San Juan Center
04:41PM 18.1667 -63.6833 289° West 370 426 25,600 2,100 Climbing San Juan Center
04:42PM 18.2167 -63.8000 294° West 400 460 27,700 1,980 Climbing San Juan Center
04:43PM 18.2500 -63.9167 287° West 400 460 29,700 1,980 Climbing San Juan Center
04:44PM 18.3000 -64.0167 298° West 410 472 31,700 2,160 Climbing San Juan Center
04:45PM 18.3500 -64.1333 294° West 400 460 34,100 2,340 Climbing San Juan Center
04:46PM 18.3833 -64.2333 289° West 390 449 36,500 2,160 Climbing San Juan Center
04:47PM 18.4167 -64.3333 289° West 380 437 38,500 1,560 Climbing San Juan Center
04:48PM 18.4500 -64.4333 289° West 380 437 39,700 720 Climbing San Juan Center
04:49PM 18.5000 -64.5500 294° West 380 437 40,000 120 Climbing San Juan Center
04:50PM 18.5333 -64.6500 289° West 380 437 40,000  Level San Juan Center
04:51PM 18.5667 -64.7500 289° West 370 426 40,000  Level San Juan Center
04:52PM 18.6167 -64.8500 298° West 370 426 40,000  Level San Juan Center
04:53PM 18.6500 -64.9667 287° West 370 426 40,000  Level San Juan Center
04:54PM 18.6833 -65.0500 293° West 370 426 40,000  Level San Juan Center
04:55PM 18.7167 -65.1500 289° West 370 426 40,000  Level San Juan Center
04:56PM 18.7667 -65.2667 294° West 370 426 40,000  Level San Juan Center
04:57PM 18.8000 -65.3667 289° West 370 426 40,000  Level San Juan Center
04:58PM 18.8333 -65.4667 289° West 370 426 40,000  Level San Juan Center
04:59PM 18.8667 -65.5667 289° West 370 426 40,000  Level San Juan Center
05:00PM 18.9000 -65.6667 289° West 370 426 40,000  Level San Juan Center
05:01PM 18.9500 -65.7667 298° West 370 426 40,000  Level San Juan Center
05:02PM 18.9833 -65.8833 287° West 370 426 40,000  Level San Juan Center
05:03PM 19.0167 -65.9833 289° West 360 414 40,000  Level San Juan Center
05:04PM 19.0500 -66.0833 289° West 380 437 40,000  Level San Juan Center
05:05PM 19.1000 -66.2000 294° West 380 437 40,000  Level San Juan Center
05:06PM 19.1333 -66.2833 293° West 380 437 40,000  Level San Juan Center
05:07PM 19.1667 -66.4000 287° West 380 437 40,000  Level San Juan Center
05:08PM 19.2000 -66.5000 289° West 380 437 40,000  Level San Juan Center
05:09PM 19.2333 -66.6167 287° West 380 437 40,000  Level San Juan Center
05:10PM 19.2833 -66.7167 298° West 390 449 40,000  Level San Juan Center
05:11PM 19.3167 -66.8167 289° West 390 449 40,000  Level San Juan Center
05:12PM 19.3500 -66.9333 287° West 390 449 40,000  Level San Juan Center
05:13PM 19.3833 -67.0333 289° West 380 437 40,000  Level San Juan Center
05:14PM 19.4167 -67.1333 289° West 380 437 40,000  Level San Juan Center
05:15PM 19.4667 -67.2500 294° West 380 437 40,000  Level San Juan Center
05:16PM 19.5000 -67.3500 289° West 380 437 40,000  Level San Juan Center
05:17PM 19.5333 -67.4667 287° West 380 437 40,000  Level San Juan Center
05:18PM 19.5667 -67.5667 289° West 390 449 40,000  Level San Juan Center
05:19PM 19.6000 -67.6667 290° West 390 449 40,000  Level San Juan Center
05:20PM 19.6500 -67.7833 294° West 380 437 40,000  Level San Juan Center
05:21PM 19.6833 -67.8833 290° West 390 449 40,000  Level San Juan Center
05:22PM 19.7167 -68.0000 287° West 390 449 40,000  Level San Juan Center
05:23PM 19.7500 -68.1000 290° West 390 449 40,000  Level San Juan Center
05:24PM 19.7833 -68.2167 287° West 380 437 40,000  Level San Juan Center
05:25PM 19.8333 -68.3167 298° West 380 437 40,000  Level San Juan Center
05:26PM 19.8667 -68.4333 287° West 390 449 40,000  Level San Juan Center
05:27PM 19.9106 -68.5711 289° West 391 450 40,000  Level Miami Center
05:28PM 19.9472 -68.6792 290° West 396 456 40,000  Level Miami Center
05:29PM 19.9842 -68.7869 290° West 396 456 40,000  Level Miami Center
05:30PM 20.0369 -68.8850 300° West 396 456 40,000  Level Miami Center
05:31PM 20.0983 -68.9831 304° West 396 456 40,000  Level Miami Center
05:32PM 20.1636 -69.0806 306° West 396 456 40,000  Level Miami Center
05:33PM 20.2244 -69.1786 303° West 401 461 40,000  Level Miami Center
05:34PM 20.2875 -69.2744 305° West 401 461 40,000  Level Miami Center
05:35PM 20.3528 -69.3725 305° West 401 461 40,000  Level Miami Center
05:36PM 20.4156 -69.4706 304° West 401 461 40,000  Level Miami Center
05:37PM 20.4764 -69.5669 304° West 401 461 40,000  Level Miami Center
05:38PM 20.5394 -69.6653 304° West 401 461 40,000  Level Miami Center
05:39PM 20.6022 -69.7636 304° West 401 461 40,000  Level Miami Center
05:40PM 20.6650 -69.8600 305° West 401 461 40,000  Level Miami Center
05:41PM 20.7211 -69.9481 304° West 401 461 40,000  Level Miami Center
05:42PM 20.7836 -70.0422 305° West 401 461 40,000  Level Miami Center
05:43PM 20.8442 -70.1411 303° West 401 461 40,000  Level Miami Center
05:44PM 20.9067 -70.2400 304° West 401 461 40,000  Level Miami Center
05:45PM 20.9692 -70.3369 305° West 401 461 40,000  Level Miami Center
05:46PM 21.0294 -70.4339 304° West 401 461 40,000  Level Miami Center
05:47PM 21.0919 -70.5331 304° West 401 461 40,000  Level Miami Center
05:48PM 21.1564 -70.6303 305° West 401 461 40,000  Level Miami Center
05:49PM 21.2186 -70.7272 305° West 401 461 40,000  Level Miami Center
05:50PM 21.2789 -70.8247 304° West 401 461 40,000  Level Miami Center
05:51PM 21.3411 -70.9219 305° West 401 461 40,000  Level Miami Center
05:52PM 21.4031 -71.0194 304° West 395 455 40,000  Level Miami Center
05:53PM 21.4697 -71.1258 304° West 395 455 40,000  Level Miami Center
05:54PM 21.5297 -71.2236 303° West 395 455 40,000  Level Miami Center
05:55PM 21.5986 -71.3367 303° West 436 502 40,000  Level Miami Center
05:56PM 21.6561 -71.4347 302° West 418 481 40,000  Level Miami Center
05:57PM 21.7181 -71.5303 305° West 406 467 40,000  Level Miami Center
05:58PM 21.7800 -71.6306 304° West 401 461 40,000  Level Miami Center
05:59PM 21.8439 -71.7311 304° West 401 461 40,000  Level Miami Center
06:00PM 21.9036 -71.8339 302° West 401 461 40,000  Level Miami Center
06:01PM 21.9650 -71.9297 305° West 395 455 40,000  Level Miami Center
06:02PM 22.0267 -72.0306 303° West 400 460 40,000  Level Miami Center
06:03PM 22.0864 -72.1314 303° West 400 460 40,000  Level Miami Center
06:04PM 22.1478 -72.2300 304° West 400 460 40,000  Level Miami Center
06:05PM 22.2092 -72.3286 304° West 400 460 40,000  Level Miami Center
06:06PM 22.2686 -72.4319 302° West 400 460 40,000  Level Miami Center
06:07PM 22.3319 -72.5331 304° West 400 460 40,000  Level Miami Center
06:08PM 22.3914 -72.6344 302° West 400 460 40,000  Level Miami Center
06:09PM 22.4525 -72.7336 304° West 400 460 40,000  Level Miami Center
06:10PM 22.5114 -72.8328 303° West 400 460 40,000  Level Miami Center
06:11PM 22.5725 -72.9297 304° West 395 455 40,000  Level Miami Center
06:12PM 22.6272 -73.0269 301° West 389 448 40,000  Level Miami Center
06:13PM 22.6922 -73.1264 305° West 394 453 40,000  Level Miami Center
06:14PM 22.7403 -73.2128 301° West 388 447 40,000  Level Miami Center
06:15PM 22.8033 -73.3125 304° West 388 447 40,000  Level Miami Center
06:16PM 22.8664 -73.4167 303° West 398 458 40,000  Level Miami Center
06:17PM 22.9269 -73.5164 303° West 398 458 40,000  Level Miami Center
06:18PM 22.9878 -73.6186 303° West 398 458 40,000  Level Miami Center
06:19PM 23.0442 -73.7189 301° West 398 458 40,000  Level Miami Center
06:20PM 23.1047 -73.8211 303° West 398 458 40,000  Level Miami Center
06:21PM 23.1653 -73.9258 302° West 398 458 40,000  Level Miami Center
06:22PM 23.2239 -74.0286 302° West 398 458 40,000  Level Miami Center
06:23PM 23.2883 -74.1311 304° West 398 458 40,000  Level Miami Center
06:24PM 23.3467 -74.2339 302° West 403 464 40,000  Level Miami Center
06:25PM 23.4069 -74.3369 303° West 403 464 40,000  Level Miami Center
06:26PM 23.4692 -74.4397 303° West 403 464 40,000  Level Miami Center
06:27PM 23.5292 -74.5431 302° West 403 464 40,000  Level Miami Center
06:28PM 23.5894 -74.6461 303° West 403 464 40,000  Level Miami Center
06:29PM 23.6494 -74.7494 302° West 403 464 40,000  Level Miami Center
06:30PM 23.7092 -74.8528 302° West 403 464 40,000  Level Miami Center
06:31PM 23.7692 -74.9586 302° West 403 464 40,000  Level Miami Center
06:32PM 23.8311 -75.0597 304° West 403 464 40,000  Level Miami Center
06:33PM 23.8908 -75.1658 302° West 408 470 40,000  Level Miami Center
06:34PM 23.9506 -75.2694 302° West 408 470 40,000  Level Miami Center
06:35PM 24.0100 -75.3756 302° West 408 470 40,000  Level Miami Center
06:36PM 24.0717 -75.4819 302° West 408 470 40,000  Level Miami Center
06:37PM 24.1311 -75.5861 302° West 408 470 40,000  Level Miami Center
06:38PM 24.1925 -75.6925 302° West 408 470 40,000  Level Miami Center
06:39PM 24.2497 -75.7967 301° West 408 470 40,000  Level Miami Center
06:40PM 24.3111 -75.9056 302° West 408 470 40,000  Level Miami Center
06:41PM 24.3703 -76.0125 301° West 408 470 40,000  Level Miami Center
06:42PM 24.4314 -76.1192 302° West 408 470 40,000  Level Miami Center
06:43PM 24.4906 -76.2239 302° West 408 470 40,000  Level Miami Center
06:44PM 24.5517 -76.3333 302° West 408 470 40,000  Level Miami Center
06:45PM 24.6125 -76.4406 302° West 408 470 40,000  Level Miami Center
06:46PM 24.6714 -76.5478 301° West 408 470 40,000  Level Miami Center
06:47PM 24.7322 -76.6528 303° West 408 470 40,000 -60 Level Miami Center
06:48PM 24.7908 -76.7558 302° West 408 470 39,900 -300 Descending Miami Center
06:49PM 24.8492 -76.8633 301° West 408 470 39,500 -540 Descending Miami Center
06:50PM 24.9100 -76.9711 302° West 408 470 38,900 -720 Descending Miami Center
06:51PM 24.9703 -77.0789 302° West 413 475 38,100 -480 Descending Miami Center
06:52PM 25.0308 -77.1844 302° West 413 475 38,000 -180 Descending Miami Center
06:53PM 25.0933 -77.2925 303° West 413 475 37,800 -480 Descending Miami Center
06:54PM 25.1597 -77.4053 303° West 420 483 37,100 -720 Descending Miami Center
06:55PM 25.2136 -77.5133 299° West 432 497 36,400 -600 Descending Miami Center
06:56PM 25.2717 -77.6242 300° West 432 497 36,000 -240 Descending Miami Center
06:57PM 25.3294 -77.7347 300° West 432 497 36,000  Level Miami Center
06:58PM 25.3914 -77.8456 302° West 427 491 36,000 -120 Level Miami Center
06:59PM 25.4514 -77.9567 301° West 422 486 35,800 -360 Descending Miami Center
07:00PM 25.5111 -78.0700 300° West 428 493 35,300 -780 Descending Miami Center
07:01PM 25.5728 -78.1836 301° West 428 493 34,300 -1,020 Descending Miami Center
07:02PM 25.6133 -78.3061 290° West 423 487 33,300 -1,020 Descending Miami Center
07:03PM 25.6372 -78.4356 282° West 428 493 32,300 -1,080 Descending Miami Center
07:04PM 25.6628 -78.5694 282° West 428 493 31,200 -1,920 Descending Miami Center
07:05PM 25.6864 -78.7011 281° West 434 499 28,500 -3,120 Descending Miami Center
07:06PM 25.7078 -78.8261 281° West 434 499 25,000 -3,540 Descending Miami Center
07:07PM 25.7311 -78.9486 282° West 418 481 21,500 -3,540 Descending Miami Center
07:08PM 25.7503 -79.0597 281° West 394 453 18,000 -3,480 Descending Miami Center
07:09PM 25.7694 -79.1708 281° West 383 441 14,600 -3,060 Descending Miami Center
07:10PM 25.7867 -79.2750 280° West 356 410 11,900 -2,460 Descending Miami Center
07:11PM 25.8058 -79.3794 282° West 331 381 9,700 -2,220 Descending Miami Center
07:12PM 25.8114 -79.4164 279° West 306 352 8,900 -1,740 Descending Miami Center
07:12PM 25.8189 -79.4650 280° West 316 364 8,000 -1,560 Descending Miami Center
07:13PM 25.8303 -79.5275 281° West 288 331 7,000 -1,320 Descending Miami Center
07:13PM 25.8361 -79.5508 286° West 299 344 6,700 -1,020 Descending Miami Center
07:14PM 25.8433 -79.6108 278° West 277 319 6,000 -720 Descending Miami Center
07:14PM 25.8533 -79.6342 295° West 294 338 6,000  Level Miami Center
07:15PM 25.8753 -79.6947 292° West 285 328 6,000  Level Miami Center
07:15PM 25.8875 -79.7114 309° West 288 331 6,000  Level Miami Center
07:16PM 25.9092 -79.7764 290° West 286 329 6,000  Level Miami Center
07:16PM 25.9192 -79.7928 304° West 283 326 6,000  Level Miami Center
07:17PM 25.9450 -79.8581 294° West 289 333 6,000  Level Miami Center
07:17PM 25.9531 -79.8747 298° West 283 326 6,000  Level Miami Center
07:18PM 25.9789 -79.9375 295° West 289 333 6,000  Level Miami Center
07:18PM 25.9892 -79.9542 304° West 288 331 6,000  Level Miami Center
07:19PM 26.0211 -80.0150 300° West 292 336 6,000  Level Miami Center
07:19PM 26.0356 -80.0269 323° Northwest 288 331 6,000  Level Miami Center
07:20PM 26.0656 -80.0856 300° West 286 329 6,000  Level Miami Center
07:20PM 26.0778 -80.1019 310° West 288 331 6,000  Level Miami Center
07:21PM 26.1097 -80.1631 300° West 245 282 6,000  Level Miami Center
07:21PM 26.1200 -80.1703 328° Northwest 282 325 6,000 -420 Level Miami Center
07:22PM 26.1439 -80.2242 296° West 231 266 5,600 -1,140 Descending Miami Center
07:23PM 26.1569 -80.2894 283° West 205 236 4,100 -840 Descending Miami Center
07:24PM 26.1556 -80.3519 269° West 196 226 4,000 -180 Descending Miami Center
07:25PM 26.1378 -80.3997 247° West 188 216 3,800 -420 Descending Miami Center
07:26PM 26.0967 -80.3756 152° Southeast 171 197 3,200 -660 Descending Miami Center
07:27PM 26.0811 -80.3242 109° East 174 200 2,500 -660 Descending Miami Center
07:28PM 26.0739 -80.2731 99° East 170 196 1,900 -780 Descending Miami Center
07:29PM 26.0750 -80.2222 89° East 158 182 1,000 -900 Descending Miami Center
07:31PM 26.0667 -80.1500 77° East  Level FlightAware Approximate